sensor_id;sensor_type;location;lat;lon;timestamp;pressure;altitude;pressure_sealevel;temperature;humidity
9187;BME280;7273;48.902;9.410;2022-09-29T00:00:25;96547.50;;;7.93;77.43
9187;BME280;7273;48.902;9.410;2022-09-29T00:02:51;96546.09;;;7.96;77.32
9187;BME280;7273;48.902;9.410;2022-09-29T00:05:17;96543.09;;;7.97;77.54
9187;BME280;7273;48.902;9.410;2022-09-29T00:07:43;96541.13;;;8.03;77.52
9187;BME280;7273;48.902;9.410;2022-09-29T00:10:08;96541.13;;;8.03;77.61
9187;BME280;7273;48.902;9.410;2022-09-29T00:12:34;96546.50;;;8.03;77.19
9187;BME280;7273;48.902;9.410;2022-09-29T00:14:59;96545.59;;;8.07;77.82
9187;BME280;7273;48.902;9.410;2022-09-29T00:17:25;96548.09;;;8.04;77.40
9187;BME280;7273;48.902;9.410;2022-09-29T00:19:50;96546.50;;;8.03;77.41
9187;BME280;7273;48.902;9.410;2022-09-29T00:22:16;96543.81;;;8.03;77.60
9187;BME280;7273;48.902;9.410;2022-09-29T00:24:41;96540.00;;;8.04;77.95
9187;BME280;7273;48.902;9.410;2022-09-29T00:27:07;96542.09;;;8.07;77.44
9187;BME280;7273;48.902;9.410;2022-09-29T00:29:32;96534.31;;;8.05;77.55
9187;BME280;7273;48.902;9.410;2022-09-29T00:31:58;96538.94;;;8.05;77.30
9187;BME280;7273;48.902;9.410;2022-09-29T00:34:23;96530.34;;;8.03;77.43
9187;BME280;7273;48.902;9.410;2022-09-29T00:36:48;96527.06;;;8.06;77.49
9187;BME280;7273;48.902;9.410;2022-09-29T00:39:14;96534.63;;;8.04;77.89
9187;BME280;7273;48.902;9.410;2022-09-29T00:41:40;96531.06;;;8.08;77.63
9187;BME280;7273;48.902;9.410;2022-09-29T00:44:51;96526.25;;;8.05;78.01
9187;BME280;7273;48.902;9.410;2022-09-29T00:46:56;96527.88;;;8.06;77.32
9187;BME280;7273;48.902;9.410;2022-09-29T00:49:44;96524.06;;;8.07;77.76
9187;BME280;7273;48.902;9.410;2022-09-29T00:54:52;96523.78;;;8.09;77.64
9187;BME280;7273;48.902;9.410;2022-09-29T00:57:23;96514.50;;;8.01;77.56
9187;BME280;7273;48.902;9.410;2022-09-29T01:00:10;96511.00;;;8.01;78.11
9187;BME280;7273;48.902;9.410;2022-09-29T01:02:39;96516.28;;;8.06;78.13
9187;BME280;7273;48.902;9.410;2022-09-29T01:05:11;96516.91;;;8.03;77.39
9187;BME280;7273;48.902;9.410;2022-09-29T01:07:40;96518.69;;;8.07;78.03
9187;BME280;7273;48.902;9.410;2022-09-29T01:10:09;96511.41;;;8.08;77.72
9187;BME280;7273;48.902;9.410;2022-09-29T01:12:35;96508.53;;;8.04;77.70
9187;BME280;7273;48.902;9.410;2022-09-29T01:15:00;96501.72;;;8.07;77.36
9187;BME280;7273;48.902;9.410;2022-09-29T01:17:26;96506.44;;;8.01;77.43
9187;BME280;7273;48.902;9.410;2022-09-29T01:20:10;96503.94;;;8.05;77.30
9187;BME280;7273;48.902;9.410;2022-09-29T01:39:30;96511.28;;;7.86;77.75
9187;BME280;7273;48.902;9.410;2022-09-29T01:42:04;96518.66;;;7.80;77.98
9187;BME280;7273;48.902;9.410;2022-09-29T01:44:58;96524.03;;;7.80;78.13
9187;BME280;7273;48.902;9.410;2022-09-29T01:47:39;96510.16;;;7.73;78.19
9187;BME280;7273;48.902;9.410;2022-09-29T01:50:11;96513.16;;;7.72;77.98
9187;BME280;7273;48.902;9.410;2022-09-29T01:52:47;96513.16;;;7.72;77.94
9187;BME280;7273;48.902;9.410;2022-09-29T01:55:26;96515.75;;;7.77;78.10
9187;BME280;7273;48.902;9.410;2022-09-29T01:58:04;96515.16;;;7.80;78.14
9187;BME280;7273;48.902;9.410;2022-09-29T02:00:40;96517.84;;;7.80;77.91
9187;BME280;7273;48.902;9.410;2022-09-29T02:03:23;96513.75;;;7.82;78.48
9187;BME280;7273;48.902;9.410;2022-09-29T02:05:51;96520.25;;;7.81;79.11
9187;BME280;7273;48.902;9.410;2022-09-29T02:08:28;96516.56;;;7.77;78.54
9187;BME280;7273;48.902;9.410;2022-09-29T02:11:05;96521.94;;;7.77;78.58
9187;BME280;7273;48.902;9.410;2022-09-29T02:16:04;96529.72;;;7.79;78.30
9187;BME280;7273;48.902;9.410;2022-09-29T02:18:39;96521.84;;;7.82;78.44
9187;BME280;7273;48.902;9.410;2022-09-29T02:21:07;96520.16;;;7.86;78.29
9187;BME280;7273;48.902;9.410;2022-09-29T02:23:33;96522.56;;;7.88;78.22
9187;BME280;7273;48.902;9.410;2022-09-29T02:25:59;96527.63;;;7.89;78.24
9187;BME280;7273;48.902;9.410;2022-09-29T02:28:25;96527.84;;;7.93;78.55
9187;BME280;7273;48.902;9.410;2022-09-29T02:30:51;96526.16;;;7.97;78.26
9187;BME280;7273;48.902;9.410;2022-09-29T02:33:19;96528.25;;;8.00;77.81
9187;BME280;7273;48.902;9.410;2022-09-29T02:35:54;96532.22;;;8.02;78.05
9187;BME280;7273;48.902;9.410;2022-09-29T02:41:28;96524.16;;;8.02;78.45
9187;BME280;7273;48.902;9.410;2022-09-29T02:49:29;96542.63;;;8.09;78.33
9187;BME280;7273;48.902;9.410;2022-09-29T02:52:02;96531.34;;;8.07;78.13
9187;BME280;7273;48.902;9.410;2022-09-29T02:57:15;96532.84;;;8.13;77.95
9187;BME280;7273;48.902;9.410;2022-09-29T02:59:56;96527.69;;;8.16;79.17
9187;BME280;7273;48.902;9.410;2022-09-29T03:02:27;96526.56;;;8.17;80.57
9187;BME280;7273;48.902;9.410;2022-09-29T03:04:53;96527.84;;;8.20;79.63
9187;BME280;7273;48.902;9.410;2022-09-29T03:07:19;96518.41;;;8.23;78.61
9187;BME280;7273;48.902;9.410;2022-09-29T03:09:44;96515.44;;;8.24;78.20
9187;BME280;7273;48.902;9.410;2022-09-29T03:12:10;96514.63;;;8.24;78.58
9187;BME280;7273;48.902;9.410;2022-09-29T03:14:36;96508.94;;;8.25;78.12
9187;BME280;7273;48.902;9.410;2022-09-29T03:17:01;96513.84;;;8.23;78.30
9187;BME280;7273;48.902;9.410;2022-09-29T03:19:27;96503.06;;;8.23;78.24
9187;BME280;7273;48.902;9.410;2022-09-29T03:21:53;96503.56;;;8.25;77.78
9187;BME280;7273;48.902;9.410;2022-09-29T03:24:18;96503.06;;;8.23;78.05
9187;BME280;7273;48.902;9.410;2022-09-29T03:26:44;96501.16;;;8.24;78.21
9187;BME280;7273;48.902;9.410;2022-09-29T03:29:09;96495.97;;;8.27;78.59
9187;BME280;7273;48.902;9.410;2022-09-29T03:31:35;96496.28;;;8.26;78.35
9187;BME280;7273;48.902;9.410;2022-09-29T03:34:00;96494.69;;;8.25;78.06
9187;BME280;7273;48.902;9.410;2022-09-29T03:36:25;96489.00;;;8.26;78.25
9187;BME280;7273;48.902;9.410;2022-09-29T03:38:51;96487.91;;;8.27;77.92
9187;BME280;7273;48.902;9.410;2022-09-29T03:41:16;96488.72;;;8.28;78.16
9187;BME280;7273;48.902;9.410;2022-09-29T03:43:42;96490.09;;;8.25;78.28
9187;BME280;7273;48.902;9.410;2022-09-29T03:46:07;96490.59;;;8.27;78.32
9187;BME280;7273;48.902;9.410;2022-09-29T03:48:33;96493.00;;;8.29;78.47
9187;BME280;7273;48.902;9.410;2022-09-29T03:51:00;96490.00;;;8.30;78.33
9187;BME280;7273;48.902;9.410;2022-09-29T03:53:26;96486.31;;;8.26;78.45
9187;BME280;7273;48.902;9.410;2022-09-29T03:55:51;96488.78;;;8.23;78.44
9187;BME280;7273;48.902;9.410;2022-09-29T03:58:17;96493.66;;;8.20;78.08
9187;BME280;7273;48.902;9.410;2022-09-29T04:00:43;96496.59;;;8.24;78.32
9187;BME280;7273;48.902;9.410;2022-09-29T04:03:09;96489.63;;;8.23;78.50
9187;BME280;7273;48.902;9.410;2022-09-29T04:05:34;96496.59;;;8.24;78.40
9187;BME280;7273;48.902;9.410;2022-09-29T04:08:07;96491.09;;;8.29;78.03
9187;BME280;7273;48.902;9.410;2022-09-29T04:10:33;96482.38;;;8.18;77.97
9187;BME280;7273;48.902;9.410;2022-09-29T04:12:59;96490.56;;;8.13;78.23
9187;BME280;7273;48.902;9.410;2022-09-29T04:15:25;96489.56;;;8.09;78.37
9187;BME280;7273;48.902;9.410;2022-09-29T04:17:50;96490.97;;;8.07;78.62
9187;BME280;7273;48.902;9.410;2022-09-29T04:20:16;96485.19;;;8.00;78.13
9187;BME280;7273;48.902;9.410;2022-09-29T04:22:42;96480.41;;;7.97;78.08
9187;BME280;7273;48.902;9.410;2022-09-29T04:25:07;96484.78;;;7.93;78.64
9187;BME280;7273;48.902;9.410;2022-09-29T04:27:33;96490.47;;;7.91;77.78
9187;BME280;7273;48.902;9.410;2022-09-29T04:29:58;96485.97;;;7.87;78.53
9187;BME280;7273;48.902;9.410;2022-09-29T04:32:24;96489.75;;;7.86;78.23
9187;BME280;7273;48.902;9.410;2022-09-29T04:34:50;96484.75;;;7.79;77.92
9187;BME280;7273;48.902;9.410;2022-09-29T04:37:15;96488.84;;;7.77;78.26
9187;BME280;7273;48.902;9.410;2022-09-29T04:39:41;96482.75;;;7.71;78.28
9187;BME280;7273;48.902;9.410;2022-09-29T04:42:06;96496.81;;;7.68;78.56
9187;BME280;7273;48.902;9.410;2022-09-29T04:44:32;96492.44;;;7.72;78.39
9187;BME280;7273;48.902;9.410;2022-09-29T04:46:57;96494.63;;;7.70;78.75
9187;BME280;7273;48.902;9.410;2022-09-29T04:49:23;96486.03;;;7.68;78.57
9187;BME280;7273;48.902;9.410;2022-09-29T04:51:48;96487.44;;;7.66;79.06
9187;BME280;7273;48.902;9.410;2022-09-29T04:54:14;96484.34;;;7.59;79.07
9187;BME280;7273;48.902;9.410;2022-09-29T04:56:39;96493.47;;;7.58;79.03
9187;BME280;7273;48.902;9.410;2022-09-29T04:59:05;96498.88;;;7.58;78.97
9187;BME280;7273;48.902;9.410;2022-09-29T05:01:30;96497.56;;;7.55;78.96
9187;BME280;7273;48.902;9.410;2022-09-29T05:03:56;96505.34;;;7.57;79.58
9187;BME280;7273;48.902;9.410;2022-09-29T05:06:22;96503.56;;;7.52;78.52
9187;BME280;7273;48.902;9.410;2022-09-29T05:08:47;96510.00;;;7.51;79.17
9187;BME280;7273;48.902;9.410;2022-09-29T05:11:13;96509.22;;;7.51;79.49
9187;BME280;7273;48.902;9.410;2022-09-29T05:13:39;96519.69;;;7.52;79.55
9187;BME280;7273;48.902;9.410;2022-09-29T05:16:04;96518.59;;;7.53;78.72
9187;BME280;7273;48.902;9.410;2022-09-29T05:18:30;96517.88;;;7.48;79.03
9187;BME280;7273;48.902;9.410;2022-09-29T05:21:02;96522.47;;;7.47;78.82
9187;BME280;7273;48.902;9.410;2022-09-29T05:23:27;96527.13;;;7.42;78.72
9187;BME280;7273;48.902;9.410;2022-09-29T05:25:53;96531.03;;;7.49;79.08
9187;BME280;7273;48.902;9.410;2022-09-29T05:28:18;96533.81;;;7.44;78.42
9187;BME280;7273;48.902;9.410;2022-09-29T05:30:44;96531.13;;;7.44;78.86
9187;BME280;7273;48.902;9.410;2022-09-29T05:33:09;96531.19;;;7.39;78.82
9187;BME280;7273;48.902;9.410;2022-09-29T05:35:34;96533.09;;;7.39;79.02
9187;BME280;7273;48.902;9.410;2022-09-29T05:38:00;96534.09;;;7.43;79.37
9187;BME280;7273;48.902;9.410;2022-09-29T05:40:25;96539.97;;;7.45;78.95
9187;BME280;7273;48.902;9.410;2022-09-29T05:42:51;96538.31;;;7.49;79.54
9187;BME280;7273;48.902;9.410;2022-09-29T05:45:17;96537.78;;;7.47;79.44
9187;BME280;7273;48.902;9.410;2022-09-29T05:47:43;96536.72;;;7.48;79.22
9187;BME280;7273;48.902;9.410;2022-09-29T05:50:12;96544.41;;;7.54;78.90
9187;BME280;7273;48.902;9.410;2022-09-29T05:52:38;96548.38;;;7.57;78.90
9187;BME280;7273;48.902;9.410;2022-09-29T05:55:04;96544.09;;;7.56;79.30
9187;BME280;7273;48.902;9.410;2022-09-29T05:57:34;96546.22;;;7.59;78.84
9187;BME280;7273;48.902;9.410;2022-09-29T05:59:59;96547.78;;;7.60;78.82
9187;BME280;7273;48.902;9.410;2022-09-29T06:02:25;96540.44;;;7.65;79.08
9187;BME280;7273;48.902;9.410;2022-09-29T06:04:51;96544.41;;;7.68;79.24
9187;BME280;7273;48.902;9.410;2022-09-29T06:07:16;96541.16;;;7.71;79.22
9187;BME280;7273;48.902;9.410;2022-09-29T06:09:42;96549.13;;;7.76;78.87
9187;BME280;7273;48.902;9.410;2022-09-29T06:12:07;96544.75;;;7.80;79.06
9187;BME280;7273;48.902;9.410;2022-09-29T06:14:33;96540.41;;;7.84;79.34
9187;BME280;7273;48.902;9.410;2022-09-29T06:16:58;96538.69;;;7.88;78.94
9187;BME280;7273;48.902;9.410;2022-09-29T06:19:23;96535.72;;;7.89;78.90
9187;BME280;7273;48.902;9.410;2022-09-29T06:21:49;96533.03;;;7.89;79.11
9187;BME280;7273;48.902;9.410;2022-09-29T06:24:14;96531.03;;;7.95;78.65
9187;BME280;7273;48.902;9.410;2022-09-29T06:26:40;96537.50;;;7.94;78.85
9187;BME280;7273;48.902;9.410;2022-09-29T06:29:05;96540.19;;;7.94;79.29
9187;BME280;7273;48.902;9.410;2022-09-29T06:31:31;96534.25;;;7.97;78.99
9187;BME280;7273;48.902;9.410;2022-09-29T06:34:01;96543.59;;;7.99;79.17
9187;BME280;7273;48.902;9.410;2022-09-29T06:36:34;96547.78;;;8.05;79.13
9187;BME280;7273;48.902;9.410;2022-09-29T06:39:19;96548.50;;;8.11;79.41
9187;BME280;7273;48.902;9.410;2022-09-29T06:41:44;96547.59;;;8.15;79.39
9187;BME280;7273;48.902;9.410;2022-09-29T06:44:16;96545.63;;;8.21;78.85
9187;BME280;7273;48.902;9.410;2022-09-29T06:46:42;96556.03;;;8.28;79.13
9187;BME280;7273;48.902;9.410;2022-09-29T06:49:07;96554.03;;;8.33;78.84
9187;BME280;7273;48.902;9.410;2022-09-29T06:51:34;96557.72;;;8.37;78.83
9187;BME280;7273;48.902;9.410;2022-09-29T06:53:59;96563.72;;;8.48;78.58
9187;BME280;7273;48.902;9.410;2022-09-29T06:56:25;96559.63;;;8.50;78.82
9187;BME280;7273;48.902;9.410;2022-09-29T06:58:50;96563.81;;;8.56;78.27
9187;BME280;7273;48.902;9.410;2022-09-29T07:01:16;96569.91;;;8.62;78.51
9187;BME280;7273;48.902;9.410;2022-09-29T07:03:41;96558.31;;;8.61;78.59
9187;BME280;7273;48.902;9.410;2022-09-29T07:06:08;96564.91;;;8.69;78.13
9187;BME280;7273;48.902;9.410;2022-09-29T07:08:34;96562.81;;;8.66;78.42
9187;BME280;7273;48.902;9.410;2022-09-29T07:11:02;96564.50;;;8.75;78.85
9187;BME280;7273;48.902;9.410;2022-09-29T07:13:28;96568.56;;;8.86;78.25
9187;BME280;7273;48.902;9.410;2022-09-29T07:15:54;96567.25;;;8.97;78.28
9187;BME280;7273;48.902;9.410;2022-09-29T07:18:19;96566.72;;;9.09;78.28
9187;BME280;7273;48.902;9.410;2022-09-29T07:20:45;96573.44;;;9.11;78.09
9187;BME280;7273;48.902;9.410;2022-09-29T07:23:10;96565.69;;;9.18;78.18
9187;BME280;7273;48.902;9.410;2022-09-29T07:25:36;96568.28;;;9.23;77.60
9187;BME280;7273;48.902;9.410;2022-09-29T07:28:01;96571.66;;;9.29;77.72
9187;BME280;7273;48.902;9.410;2022-09-29T07:30:27;96580.47;;;9.34;77.61
9187;BME280;7273;48.902;9.410;2022-09-29T07:32:53;96581.13;;;9.40;77.64
9187;BME280;7273;48.902;9.410;2022-09-29T07:35:22;96577.38;;;9.49;77.80
9187;BME280;7273;48.902;9.410;2022-09-29T07:37:54;96578.69;;;9.52;77.82
9187;BME280;7273;48.902;9.410;2022-09-29T07:40:21;96574.56;;;9.54;77.94
9187;BME280;7273;48.902;9.410;2022-09-29T07:42:47;96577.94;;;9.60;77.74
9187;BME280;7273;48.902;9.410;2022-09-29T07:45:15;96578.03;;;9.69;77.42
9187;BME280;7273;48.902;9.410;2022-09-29T07:47:40;96582.31;;;9.70;77.48
9187;BME280;7273;48.902;9.410;2022-09-29T07:50:06;96576.47;;;9.76;77.42
9187;BME280;7273;48.902;9.410;2022-09-29T07:52:31;96583.53;;;9.86;77.23
9187;BME280;7273;48.902;9.410;2022-09-29T07:54:57;96583.41;;;9.91;77.17
9187;BME280;7273;48.902;9.410;2022-09-29T07:57:22;96583.09;;;9.92;77.51
9187;BME280;7273;48.902;9.410;2022-09-29T07:59:47;96578.06;;;9.99;77.35
9187;BME280;7273;48.902;9.410;2022-09-29T08:02:13;96593.81;;;10.06;77.47
9187;BME280;7273;48.902;9.410;2022-09-29T08:04:39;96584.31;;;10.08;77.11
9187;BME280;7273;48.902;9.410;2022-09-29T08:07:04;96583.88;;;10.15;77.30
9187;BME280;7273;48.902;9.410;2022-09-29T08:09:30;96580.75;;;10.21;77.34
9187;BME280;7273;48.902;9.410;2022-09-29T08:11:55;96586.81;;;10.27;77.30
9187;BME280;7273;48.902;9.410;2022-09-29T08:14:20;96588.75;;;10.35;77.24
9187;BME280;7273;48.902;9.410;2022-09-29T08:16:47;96599.78;;;10.47;77.27
9187;BME280;7273;48.902;9.410;2022-09-29T08:19:12;96598.41;;;10.58;77.46
9187;BME280;7273;48.902;9.410;2022-09-29T08:21:38;96597.31;;;10.67;77.44
9187;BME280;7273;48.902;9.410;2022-09-29T08:24:05;96599.72;;;10.69;77.12
9187;BME280;7273;48.902;9.410;2022-09-29T08:26:33;96605.53;;;10.93;76.73
9187;BME280;7273;48.902;9.410;2022-09-29T08:29:02;96600.47;;;11.09;76.73
9187;BME280;7273;48.902;9.410;2022-09-29T08:31:28;96607.16;;;11.20;76.95
9187;BME280;7273;48.902;9.410;2022-09-29T08:33:56;96605.28;;;11.29;77.00
9187;BME280;7273;48.902;9.410;2022-09-29T08:36:22;96602.75;;;11.32;77.98
9187;BME280;7273;48.902;9.410;2022-09-29T08:38:50;96600.81;;;11.33;77.39
9187;BME280;7273;48.902;9.410;2022-09-29T08:44:02;96614.88;;;11.52;76.88
9187;BME280;7273;48.902;9.410;2022-09-29T08:46:44;96613.25;;;11.59;76.81
9187;BME280;7273;48.902;9.410;2022-09-29T08:49:32;96620.16;;;11.74;76.81
9187;BME280;7273;48.902;9.410;2022-09-29T08:52:07;96615.53;;;11.83;76.84
9187;BME280;7273;48.902;9.410;2022-09-29T08:54:36;96617.75;;;11.98;76.41
9187;BME280;7273;48.902;9.410;2022-09-29T08:57:04;96615.16;;;12.18;76.17
9187;BME280;7273;48.902;9.410;2022-09-29T08:59:31;96614.69;;;12.25;75.91
9187;BME280;7273;48.902;9.410;2022-09-29T09:21:41;96626.03;;;13.11;75.29
9187;BME280;7273;48.902;9.410;2022-09-29T09:24:16;96629.41;;;13.37;74.98
9187;BME280;7273;48.902;9.410;2022-09-29T09:26:44;96630.78;;;13.43;74.98
9187;BME280;7273;48.902;9.410;2022-09-29T09:29:46;96629.28;;;13.54;74.62
9187;BME280;7273;48.902;9.410;2022-09-29T09:32:18;96627.34;;;13.55;74.71
9187;BME280;7273;48.902;9.410;2022-09-29T09:37:38;96633.50;;;13.43;75.13
9187;BME280;7273;48.902;9.410;2022-09-29T09:42:37;96634.63;;;13.42;74.82
9187;BME280;7273;48.902;9.410;2022-09-29T09:45:11;96644.31;;;13.52;74.99
9187;BME280;7273;48.902;9.410;2022-09-29T09:47:46;96636.63;;;13.53;74.49
9187;BME280;7273;48.902;9.410;2022-09-29T09:52:55;96645.44;;;13.50;74.21
9187;BME280;7273;48.902;9.410;2022-09-29T09:55:26;96646.28;;;13.42;74.87
9187;BME280;7273;48.902;9.410;2022-09-29T09:58:29;96648.22;;;13.42;74.17
9187;BME280;7273;48.902;9.410;2022-09-29T10:01:03;96651.34;;;13.52;74.33
9187;BME280;7273;48.902;9.410;2022-09-29T10:03:31;96649.47;;;13.44;74.39
9187;BME280;7273;48.902;9.410;2022-09-29T10:05:57;96652.28;;;13.57;73.97
9187;BME280;7273;48.902;9.410;2022-09-29T10:08:26;96652.13;;;13.53;74.08
9187;BME280;7273;48.902;9.410;2022-09-29T10:10:54;96654.38;;;13.51;74.01
9187;BME280;7273;48.902;9.410;2022-09-29T10:13:20;96655.22;;;13.43;74.62
9187;BME280;7273;48.902;9.410;2022-09-29T10:15:58;96648.75;;;13.56;73.98
9187;BME280;7273;48.902;9.410;2022-09-29T10:18:29;96646.50;;;13.58;74.06
9187;BME280;7273;48.902;9.410;2022-09-29T10:20:58;96657.38;;;13.58;73.71
9187;BME280;7273;48.902;9.410;2022-09-29T10:23:35;96661.00;;;13.62;73.94
9187;BME280;7273;48.902;9.410;2022-09-29T10:26:12;96658.16;;;13.59;74.00
9187;BME280;7273;48.902;9.410;2022-09-29T10:28:45;96654.13;;;13.65;74.01
9187;BME280;7273;48.902;9.410;2022-09-29T10:31:25;96657.22;;;13.55;73.55
9187;BME280;7273;48.902;9.410;2022-09-29T10:36:31;96646.97;;;13.60;74.19
9187;BME280;7273;48.902;9.410;2022-09-29T10:38:58;96651.19;;;13.49;74.26
9187;BME280;7273;48.902;9.410;2022-09-29T10:41:23;96658.69;;;13.52;73.73
9187;BME280;7273;48.902;9.410;2022-09-29T10:43:50;96645.31;;;13.68;74.26
9187;BME280;7273;48.902;9.410;2022-09-29T10:46:33;96641.81;;;13.88;73.79
9187;BME280;7273;48.902;9.410;2022-09-29T10:49:21;96652.53;;;14.05;73.58
9187;BME280;7273;48.902;9.410;2022-09-29T10:54:57;96655.59;;;14.03;73.00
9187;BME280;7273;48.902;9.410;2022-09-29T10:57:27;96659.16;;;14.36;73.07
9187;BME280;7273;48.902;9.410;2022-09-29T10:59:56;96660.56;;;14.54;72.75
9187;BME280;7273;48.902;9.410;2022-09-29T11:02:29;96663.31;;;14.66;72.64
9187;BME280;7273;48.902;9.410;2022-09-29T11:04:59;96662.69;;;14.94;72.92
9187;BME280;7273;48.902;9.410;2022-09-29T11:07:26;96656.16;;;15.43;72.36
9187;BME280;7273;48.902;9.410;2022-09-29T11:09:52;96661.44;;;15.87;71.95
9187;BME280;7273;48.902;9.410;2022-09-29T11:12:26;96652.31;;;16.63;70.86
9187;BME280;7273;48.902;9.410;2022-09-29T11:14:52;96645.81;;;16.98;70.72
9187;BME280;7273;48.902;9.410;2022-09-29T11:20:00;96656.56;;;17.69;69.66
9187;BME280;7273;48.902;9.410;2022-09-29T11:25:16;96658.41;;;18.38;69.83
9187;BME280;7273;48.902;9.410;2022-09-29T11:27:52;96647.91;;;17.67;72.48
9187;BME280;7273;48.902;9.410;2022-09-29T11:30:22;96649.38;;;17.80;73.03
9187;BME280;7273;48.902;9.410;2022-09-29T11:32:59;96651.16;;;17.41;63.43
9187;BME280;7273;48.902;9.410;2022-09-29T11:43:36;96649.78;;;17.32;72.62
9187;BME280;7273;48.902;9.410;2022-09-29T12:02:40;96656.03;;;17.01;70.24
9187;BME280;7273;48.902;9.410;2022-09-29T12:05:20;96654.69;;;16.80;70.33
9187;BME280;7273;48.902;9.410;2022-09-29T12:13:34;96647.03;;;16.14;68.20
9187;BME280;7273;48.902;9.410;2022-09-29T12:16:14;96646.81;;;16.07;69.58
9187;BME280;7273;48.902;9.410;2022-09-29T12:18:46;96645.94;;;16.03;69.89
9187;BME280;7273;48.902;9.410;2022-09-29T12:21:14;96644.09;;;16.07;69.70
9187;BME280;7273;48.902;9.410;2022-09-29T12:23:43;96656.97;;;15.95;69.31
9187;BME280;7273;48.902;9.410;2022-09-29T12:26:12;96649.44;;;15.64;61.22
9187;BME280;7273;48.902;9.410;2022-09-29T12:28:51;96646.19;;;15.86;68.23
9187;BME280;7273;48.902;9.410;2022-09-29T12:31:23;96650.97;;;15.89;69.21
9187;BME280;7273;48.902;9.410;2022-09-29T12:34:00;96650.97;;;15.89;68.38
9187;BME280;7273;48.902;9.410;2022-09-29T12:36:46;96641.97;;;16.01;67.95
9187;BME280;7273;48.902;9.410;2022-09-29T12:39:35;96637.34;;;15.89;68.27
9187;BME280;7273;48.902;9.410;2022-09-29T12:45:05;96643.94;;;15.88;68.43
9187;BME280;7273;48.902;9.410;2022-09-29T12:50:30;96640.19;;;16.21;66.75
9187;BME280;7273;48.902;9.410;2022-09-29T12:53:21;96631.72;;;16.10;65.59
9187;BME280;7273;48.902;9.410;2022-09-29T12:56:01;96630.06;;;16.21;67.05
9187;BME280;7273;48.902;9.410;2022-09-29T12:58:32;96637.56;;;16.24;67.15
9187;BME280;7273;48.902;9.410;2022-09-29T13:01:27;96634.13;;;16.27;63.40
9187;BME280;7273;48.902;9.410;2022-09-29T13:06:47;96636.25;;;16.46;64.80
9187;BME280;7273;48.902;9.410;2022-09-29T13:20:10;96650.59;;;16.03;65.98
9187;BME280;7273;48.902;9.410;2022-09-29T13:27:50;96654.34;;;15.98;66.29
9187;BME280;7273;48.902;9.410;2022-09-29T13:30:23;96654.75;;;15.73;66.12
9187;BME280;7273;48.902;9.410;2022-09-29T13:33:14;96656.06;;;15.51;65.50
9187;BME280;7273;48.902;9.410;2022-09-29T13:35:45;96661.47;;;15.63;66.81
9187;BME280;7273;48.902;9.410;2022-09-29T13:38:27;96653.75;;;15.65;65.85
9187;BME280;7273;48.902;9.410;2022-09-29T13:48:52;96658.44;;;15.53;66.85
9187;BME280;7273;48.902;9.410;2022-09-29T13:51:22;96659.56;;;15.52;61.97
9187;BME280;7273;48.902;9.410;2022-09-29T13:54:21;96664.34;;;15.43;65.07
9187;BME280;7273;48.902;9.410;2022-09-29T13:56:51;96665.22;;;15.47;66.04
9187;BME280;7273;48.902;9.410;2022-09-29T13:59:23;96661.50;;;15.39;66.67
9187;BME280;7273;48.902;9.410;2022-09-29T14:01:49;96658.63;;;15.36;66.52
9187;BME280;7273;48.902;9.410;2022-09-29T14:04:34;96665.56;;;15.33;65.59
9187;BME280;7273;48.902;9.410;2022-09-29T14:07:03;96661.81;;;15.38;66.29
9187;BME280;7273;48.902;9.410;2022-09-29T14:09:32;96662.16;;;15.36;66.55
9187;BME280;7273;48.902;9.410;2022-09-29T14:12:03;96665.13;;;15.43;66.41
9187;BME280;7273;48.902;9.410;2022-09-29T14:14:39;96671.72;;;15.42;66.36
9187;BME280;7273;48.902;9.410;2022-09-29T14:17:16;96668.41;;;15.37;66.13
9187;BME280;7273;48.902;9.410;2022-09-29T14:33:16;96694.28;;;15.19;66.44
9187;BME280;7273;48.902;9.410;2022-09-29T14:36:03;96699.94;;;15.14;66.25
9187;BME280;7273;48.902;9.410;2022-09-29T14:38:35;96692.34;;;15.07;66.67
9187;BME280;7273;48.902;9.410;2022-09-29T14:58:02;96716.06;;;14.74;66.47
9187;BME280;7273;48.902;9.410;2022-09-29T15:03:07;96714.38;;;14.69;66.72
9187;BME280;7273;48.902;9.410;2022-09-29T15:05:34;96717.72;;;14.66;66.99
9187;BME280;7273;48.902;9.410;2022-09-29T15:08:01;96715.88;;;14.58;67.25
9187;BME280;7273;48.902;9.410;2022-09-29T15:10:37;96718.94;;;14.57;66.99
9187;BME280;7273;48.902;9.410;2022-09-29T15:15:42;96711.00;;;14.52;66.94
9187;BME280;7273;48.902;9.410;2022-09-29T15:18:21;96711.00;;;14.52;66.73
9187;BME280;7273;48.902;9.410;2022-09-29T15:20:55;96716.00;;;14.50;66.72
9187;BME280;7273;48.902;9.410;2022-09-29T15:23:54;96713.00;;;14.43;66.13
9187;BME280;7273;48.902;9.410;2022-09-29T15:26:31;96714.03;;;14.38;66.62
9187;BME280;7273;48.902;9.410;2022-09-29T15:28:58;96719.00;;;14.36;67.03
9187;BME280;7273;48.902;9.410;2022-09-29T15:31:31;96713.75;;;14.31;66.70
9187;BME280;7273;48.902;9.410;2022-09-29T15:34:00;96716.34;;;14.28;66.78
9187;BME280;7273;48.902;9.410;2022-09-29T15:36:34;96720.63;;;14.29;66.73
9187;BME280;7273;48.902;9.410;2022-09-29T15:39:08;96722.16;;;14.18;67.08
9187;BME280;7273;48.902;9.410;2022-09-29T15:41:37;96730.91;;;14.23;66.90
9187;BME280;7273;48.902;9.410;2022-09-29T15:44:16;96732.34;;;14.21;66.68
9187;BME280;7273;48.902;9.410;2022-09-29T15:46:55;96737.69;;;14.17;66.85
9187;BME280;7273;48.902;9.410;2022-09-29T15:49:26;96732.88;;;14.14;67.04
9187;BME280;7273;48.902;9.410;2022-09-29T15:52:06;96737.41;;;14.10;66.80
9187;BME280;7273;48.902;9.410;2022-09-29T15:54:40;96740.94;;;14.11;66.96
9187;BME280;7273;48.902;9.410;2022-09-29T15:57:31;96749.72;;;14.08;67.02
9187;BME280;7273;48.902;9.410;2022-09-29T16:08:26;96745.81;;;13.97;67.72
9187;BME280;7273;48.902;9.410;2022-09-29T16:11:01;96743.63;;;13.90;67.61
9187;BME280;7273;48.902;9.410;2022-09-29T16:13:31;96751.31;;;13.88;67.88
9187;BME280;7273;48.902;9.410;2022-09-29T16:16:03;96756.47;;;13.81;68.13
9187;BME280;7273;48.902;9.410;2022-09-29T16:21:04;96751.69;;;13.78;67.89
9187;BME280;7273;48.902;9.410;2022-09-29T16:28:32;96761.19;;;13.64;68.38
9187;BME280;7273;48.902;9.410;2022-09-29T16:31:15;96763.66;;;13.57;68.09
9187;BME280;7273;48.902;9.410;2022-09-29T16:33:46;96762.69;;;13.52;68.23
9187;BME280;7273;48.902;9.410;2022-09-29T16:36:20;96762.88;;;13.47;68.23
9187;BME280;7273;48.902;9.410;2022-09-29T16:38:47;96766.09;;;13.41;67.84
9187;BME280;7273;48.902;9.410;2022-09-29T16:41:48;96768.41;;;13.30;68.04
9187;BME280;7273;48.902;9.410;2022-09-29T16:44:17;96775.25;;;13.28;68.64
9187;BME280;7273;48.902;9.410;2022-09-29T16:46:53;96777.38;;;13.22;68.48
9187;BME280;7273;48.902;9.410;2022-09-29T16:49:27;96787.13;;;13.15;68.33
9187;BME280;7273;48.902;9.410;2022-09-29T16:51:55;96788.91;;;13.11;68.59